createdAt,value
2019-05-06T00:01:48.645Z,53.47
2019-05-06T00:06:54.812Z,53.67
2019-05-06T00:11:59.409Z,53.80
2019-05-06T00:17:04.105Z,53.78
2019-05-06T00:22:10.517Z,53.81
2019-05-06T00:27:19.381Z,53.39
2019-05-06T00:32:24.316Z,53.85
2019-05-06T00:37:28.867Z,53.71
2019-05-06T00:42:35.272Z,53.87
2019-05-06T00:47:39.570Z,54.21
2019-05-06T00:52:44.716Z,54.64
2019-05-06T00:57:49.403Z,54.54
2019-05-06T01:02:54.241Z,54.86
2019-05-06T01:07:58.944Z,55.33
2019-05-06T01:13:08.758Z,55.33
2019-05-06T01:18:13.795Z,55.20
2019-05-06T01:23:18.139Z,55.52
2019-05-06T01:28:24.397Z,55.52
2019-05-06T01:33:28.381Z,55.98
2019-05-06T01:38:37.428Z,56.16
2019-05-06T01:43:43.836Z,56.51
2019-05-06T01:48:48.009Z,56.69
2019-05-06T01:53:54.391Z,56.80
2019-05-06T01:59:00.011Z,57.05
2019-05-06T02:04:04.619Z,57.44
2019-05-06T02:09:17.086Z,57.53
2019-05-06T02:14:21.419Z,57.79
2019-05-06T02:19:25.820Z,57.42
2019-05-06T02:24:38.795Z,57.42
2019-05-06T02:29:49.221Z,57.73
2019-05-06T02:35:15.456Z,57.73
2019-05-06T02:40:24.860Z,58.00
2019-05-06T02:45:28.703Z,57.71
2019-05-06T02:50:53.817Z,58.13
2019-05-06T02:55:58.085Z,57.71
2019-05-06T03:01:03.592Z,57.85
2019-05-06T03:06:08.368Z,58.25
2019-05-06T03:11:13.808Z,58.34
2019-05-06T03:16:18.379Z,58.34
2019-05-06T03:21:40.301Z,58.70
2019-05-06T03:26:44.479Z,58.87
2019-05-06T03:31:48.592Z,58.56
2019-05-06T03:36:56.096Z,59.02
2019-05-06T03:41:58.800Z,58.57
2019-05-06T03:47:23.258Z,58.46
2019-05-06T03:52:29.763Z,58.27
2019-05-06T03:57:36.100Z,58.23
2019-05-06T04:02:42.826Z,57.96
2019-05-06T04:07:47.247Z,57.05
2019-05-06T04:12:53.421Z,57.44
2019-05-06T04:18:05.777Z,57.02
2019-05-06T04:23:33.079Z,56.71
2019-05-06T04:28:37.722Z,56.47
2019-05-06T04:33:46.115Z,56.45
2019-05-06T04:38:47.854Z,56.45
2019-05-06T04:43:53.325Z,56.24
2019-05-06T04:48:58.250Z,56.12
2019-05-06T04:54:04.216Z,56.12
2019-05-06T04:59:08.329Z,56.58
2019-05-06T05:04:24.475Z,56.63
2019-05-06T05:09:18.411Z,55.64
2019-05-06T05:14:47.582Z,55.79
2019-05-06T05:19:52.324Z,55.42
2019-05-06T05:24:57.210Z,55.42
2019-05-06T05:30:02.093Z,55.12
2019-05-06T05:35:07.092Z,55.12
2019-05-06T05:40:13.006Z,55.01
2019-05-06T05:45:17.323Z,54.71
2019-05-06T05:50:32.498Z,54.12
2019-05-06T05:55:37.155Z,54.29
2019-05-06T06:00:42.562Z,54.31
2019-05-06T06:05:46.942Z,54.31
2019-05-06T06:11:04.216Z,53.69
2019-05-06T06:16:42.607Z,53.69
2019-05-06T06:21:52.650Z,53.78
2019-05-06T06:26:56.992Z,53.78
2019-05-06T06:32:10.214Z,53.22
2019-05-06T06:37:37.105Z,53.28
2019-05-06T06:42:42.758Z,53.57
2019-05-06T06:47:47.135Z,53.73
2019-05-06T06:52:52.500Z,53.73
2019-05-06T06:58:04.664Z,46.92
2019-05-06T07:03:15.000Z,47.85
2019-05-06T07:08:32.148Z,48.45
2019-05-06T07:13:25.400Z,48.74
2019-05-06T07:18:29.599Z,48.74
2019-05-06T07:23:34.827Z,45.10
2019-05-06T07:28:38.886Z,45.24
2019-05-06T07:33:43.095Z,47.82
2019-05-06T07:38:52.685Z,49.22
2019-05-06T07:44:27.656Z,50.98
2019-05-06T07:49:32.927Z,52.15
2019-05-06T07:54:37.347Z,52.60
2019-05-06T07:59:42.903Z,53.81
2019-05-06T08:04:47.410Z,54.91
2019-05-06T08:09:52.881Z,55.11
2019-05-06T08:14:57.416Z,55.63
2019-05-06T08:20:02.478Z,55.63
2019-05-06T08:25:06.996Z,57.56
2019-05-06T08:30:12.907Z,57.44
2019-05-06T08:35:18.741Z,56.11
2019-05-06T08:40:26.135Z,55.35
2019-05-06T08:45:28.832Z,54.82
2019-05-06T08:51:02.820Z,54.58
2019-05-06T08:56:07.919Z,54.29
2019-05-06T09:01:14.120Z,54.16
2019-05-06T09:06:29.646Z,54.16
2019-05-06T09:11:25.888Z,54.10
2019-05-06T09:16:33.103Z,54.10
2019-05-06T09:21:37.099Z,54.23
2019-05-06T09:27:03.355Z,54.64
2019-05-06T09:32:13.933Z,54.64
2019-05-06T09:37:19.161Z,54.31
2019-05-06T09:42:23.389Z,54.02
2019-05-06T09:47:45.261Z,53.88
2019-05-06T09:52:49.285Z,53.55
2019-05-06T09:58:03.397Z,53.55
2019-05-06T10:03:07.945Z,53.07
2019-05-06T10:08:12.587Z,52.36
2019-05-06T10:13:16.930Z,52.39
2019-05-06T10:18:22.621Z,52.49
2019-05-06T10:23:27.009Z,51.95
2019-05-06T10:28:45.042Z,51.72
2019-05-06T10:34:06.908Z,49.50
2019-05-06T10:39:12.736Z,49.50
2019-05-06T10:44:26.315Z,48.46
2019-05-06T10:49:30.349Z,48.38
2019-05-06T10:54:34.510Z,48.38
2019-05-06T10:59:38.675Z,47.29
2019-05-06T11:04:42.824Z,47.29
2019-05-06T11:09:46.903Z,46.43
2019-05-06T11:14:55.352Z,46.53
2019-05-06T11:19:56.726Z,46.59
2019-05-06T11:25:03.057Z,47.37
2019-05-06T11:30:12.713Z,47.16
2019-05-06T11:35:25.636Z,47.03
2019-05-06T11:40:29.645Z,46.15
2019-05-06T11:45:33.658Z,46.15
2019-05-06T11:50:38.082Z,46.05
2019-05-06T11:55:42.294Z,47.21
2019-05-06T12:00:46.296Z,46.56
2019-05-06T12:05:52.536Z,46.71
2019-05-06T12:10:56.195Z,46.71
2019-05-06T12:16:02.429Z,45.40
2019-05-06T12:21:11.751Z,44.95
2019-05-06T12:26:13.186Z,45.44
2019-05-06T12:31:17.639Z,45.44
2019-05-06T12:36:22.637Z,44.00
2019-05-06T12:41:26.661Z,38.79
2019-05-06T12:46:35.198Z,38.63
2019-05-06T12:51:39.292Z,41.18
2019-05-06T12:56:43.308Z,42.15
2019-05-06T13:01:47.326Z,41.66
2019-05-06T13:06:52.198Z,41.10
2019-05-06T13:11:56.531Z,41.96
2019-05-06T13:17:02.604Z,42.86
2019-05-06T13:22:07.577Z,42.95
2019-05-06T13:27:13.542Z,42.95
2019-05-06T13:32:20.208Z,43.88
2019-05-06T13:37:24.509Z,44.82
2019-05-06T13:42:33.015Z,45.26
2019-05-06T13:47:58.451Z,45.87
2019-05-06T13:53:11.516Z,46.22
2019-05-06T13:58:12.493Z,46.31
2019-05-06T14:03:17.621Z,46.31
2019-05-06T14:08:22.262Z,46.87
2019-05-06T14:13:26.512Z,47.43
2019-05-06T14:18:33.069Z,47.32
2019-05-06T14:23:36.512Z,47.27
2019-05-06T14:28:48.971Z,46.96
2019-05-06T14:33:52.986Z,47.00
2019-05-06T14:38:57.072Z,47.30
2019-05-06T14:44:04.973Z,47.41
2019-05-06T14:49:06.963Z,47.57
2019-05-06T14:54:14.616Z,47.73
2019-05-06T14:59:16.859Z,47.90
2019-05-06T15:04:22.969Z,47.83
2019-05-06T15:09:26.871Z,48.22
2019-05-06T15:14:33.121Z,48.29
2019-05-06T15:19:36.834Z,48.19
2019-05-06T15:24:42.639Z,47.92
2019-05-06T15:29:49.756Z,47.72
2019-05-06T15:35:07.715Z,48.40
2019-05-06T15:40:12.281Z,48.34
2019-05-06T15:45:18.192Z,48.34
2019-05-06T15:50:23.054Z,48.77
2019-05-06T15:55:27.495Z,48.23
2019-05-06T16:00:33.081Z,48.65
2019-05-06T16:05:37.236Z,48.57
2019-05-06T16:10:51.837Z,48.43
2019-05-06T16:15:47.146Z,48.75
2019-05-06T16:20:51.258Z,49.51
2019-05-06T16:25:55.408Z,49.35
2019-05-06T16:31:02.319Z,51.29
2019-05-06T16:36:06.052Z,52.09
2019-05-06T16:41:13.215Z,51.86
2019-05-06T16:46:15.931Z,51.08
2019-05-06T16:51:22.148Z,51.85
2019-05-06T16:56:33.266Z,51.75
2019-05-06T17:01:38.927Z,51.75
2019-05-06T17:06:43.130Z,51.52
2019-05-06T17:11:47.212Z,51.53
2019-05-06T17:16:52.689Z,51.53
2019-05-06T17:21:58.732Z,50.95
2019-05-06T17:27:02.906Z,50.87
2019-05-06T17:32:24.286Z,50.61
2019-05-06T17:38:02.871Z,50.61
2019-05-06T17:43:07.084Z,50.51
2019-05-06T17:48:34.087Z,50.51
2019-05-06T17:53:38.807Z,51.45
2019-05-06T17:58:42.999Z,51.27
2019-05-06T18:03:47.028Z,51.15
2019-05-06T18:08:52.810Z,50.79
2019-05-06T18:13:56.778Z,50.41
2019-05-06T18:19:02.944Z,50.19
2019-05-06T18:24:09.663Z,50.51
2019-05-06T18:29:12.744Z,50.76
2019-05-06T18:34:16.834Z,50.76
2019-05-06T18:39:22.306Z,51.08
2019-05-06T18:44:26.516Z,51.17
2019-05-06T18:49:32.987Z,51.17
2019-05-06T18:54:36.484Z,51.34
2019-05-06T18:59:42.513Z,51.14
2019-05-06T19:04:52.328Z,51.14
2019-05-06T19:10:06.356Z,50.67
2019-05-06T19:15:12.659Z,50.67
2019-05-06T19:20:17.172Z,51.11
2019-05-06T19:25:22.709Z,51.37
2019-05-06T19:30:27.044Z,51.65
2019-05-06T19:35:34.185Z,51.71
2019-05-06T19:40:36.816Z,51.95
2019-05-06T19:45:42.252Z,52.15
2019-05-06T19:50:46.505Z,52.18
2019-05-06T19:55:52.888Z,52.50
2019-05-06T20:00:56.676Z,52.64
2019-05-06T20:06:13.697Z,52.72
2019-05-06T20:11:24.173Z,52.97
2019-05-06T20:16:28.339Z,53.19
2019-05-06T20:21:32.973Z,53.05
2019-05-06T20:26:37.437Z,53.39
2019-05-06T20:31:42.799Z,53.52
2019-05-06T20:36:47.054Z,52.91
2019-05-06T20:41:51.261Z,52.91
2019-05-06T20:46:55.530Z,53.26
2019-05-06T20:51:59.700Z,53.25
2019-05-06T20:57:03.957Z,53.63
2019-05-06T21:02:08.062Z,53.19
2019-05-06T21:07:12.511Z,53.49
2019-05-06T21:12:16.746Z,53.76
2019-05-06T21:17:22.382Z,53.49
2019-05-06T21:22:26.722Z,53.93
2019-05-06T21:27:30.936Z,53.90
2019-05-06T21:32:35.207Z,54.38
2019-05-06T21:37:39.418Z,54.38
2019-05-06T21:42:43.644Z,54.17
2019-05-06T21:47:47.875Z,54.22
2019-05-06T21:52:52.121Z,54.77
2019-05-06T21:57:56.229Z,54.40
2019-05-06T22:03:02.393Z,54.40
2019-05-06T22:08:06.573Z,54.31
2019-05-06T22:13:12.582Z,54.41
2019-05-06T22:18:17.089Z,54.41
2019-05-06T22:23:22.180Z,55.07
2019-05-06T22:28:26.572Z,55.32
2019-05-06T22:33:31.815Z,55.31
2019-05-06T22:38:36.000Z,55.58
2019-05-06T22:43:42.259Z,55.10
2019-05-06T22:48:46.060Z,55.02
2019-05-06T22:53:50.119Z,55.67
2019-05-06T22:58:54.258Z,55.17
2019-05-06T23:03:58.560Z,55.36
2019-05-06T23:09:02.816Z,55.71
2019-05-06T23:14:07.293Z,55.26
2019-05-06T23:19:11.665Z,55.26
2019-05-06T23:24:15.939Z,55.71
2019-05-06T23:29:22.315Z,55.28
2019-05-06T23:34:25.973Z,55.54
2019-05-06T23:40:07.541Z,55.90
2019-05-06T23:45:47.487Z,55.52
2019-05-06T23:51:27.457Z,55.70
2019-05-06T23:56:39.971Z,55.99
